createdAt,value
2022-10-09T00:02:44.645Z,101008.38
2022-10-09T00:06:52.819Z,101011.34
2022-10-09T00:11:00.643Z,101007.77
2022-10-09T00:15:09.511Z,101006.75
2022-10-09T00:19:16.903Z,101008.05
2022-10-09T00:23:24.189Z,101010.34
2022-10-09T00:27:32.433Z,101012.05
2022-10-09T00:31:40.872Z,101020.56
2022-10-09T00:35:48.433Z,101028.27
2022-10-09T00:39:57.554Z,101029.89
2022-10-09T00:44:06.385Z,101033.07
2022-10-09T00:48:15.661Z,101037.79
2022-10-09T00:52:24.101Z,101037.40
2022-10-09T00:56:32.389Z,101038.99
2022-10-09T01:00:40.094Z,101041.69
2022-10-09T01:04:48.222Z,101045.39
2022-10-09T01:09:01.995Z,101045.77
2022-10-09T01:13:12.780Z,101049.67
2022-10-09T01:17:25.695Z,101054.42
2022-10-09T01:21:36.267Z,101055.70
2022-10-09T01:25:53.064Z,101058.41
2022-10-09T01:30:03.831Z,101061.37
2022-10-09T01:34:12.099Z,101065.30
2022-10-09T01:38:20.699Z,101069.47
2022-10-09T01:42:30.532Z,101071.67
2022-10-09T01:46:38.034Z,101075.73
2022-10-09T01:50:47.847Z,101075.48
2022-10-09T01:55:04.179Z,101079.40
2022-10-09T01:59:16.001Z,101084.42
2022-10-09T02:03:25.284Z,101092.38
2022-10-09T02:07:33.887Z,101092.75
2022-10-09T02:11:44.023Z,101091.43
2022-10-09T02:15:55.248Z,101093.77
2022-10-09T02:20:08.082Z,101100.05
2022-10-09T02:24:19.683Z,101101.00
2022-10-09T02:28:28.126Z,101105.48
2022-10-09T02:32:36.654Z,101109.16
2022-10-09T02:36:46.302Z,101108.33
2022-10-09T02:40:53.865Z,101113.92
2022-10-09T02:45:02.210Z,101125.80
2022-10-09T02:49:10.682Z,101134.11
2022-10-09T02:53:18.611Z,101140.17
2022-10-09T02:57:26.428Z,101148.50
2022-10-09T03:01:35.317Z,101152.11
2022-10-09T03:05:43.542Z,101150.63
2022-10-09T03:09:51.736Z,101153.09
2022-10-09T03:13:59.298Z,101150.65
2022-10-09T03:18:06.850Z,101153.40
2022-10-09T03:22:15.995Z,101161.40
2022-10-09T03:26:26.942Z,101164.80
2022-10-09T03:30:36.037Z,101167.86
2022-10-09T03:34:43.886Z,101172.66
2022-10-09T03:38:51.042Z,101172.97
2022-10-09T03:42:59.032Z,101181.73
2022-10-09T03:47:06.509Z,101191.59
2022-10-09T03:51:13.714Z,101194.43
2022-10-09T03:55:21.556Z,101197.35
2022-10-09T03:59:29.501Z,101204.84
2022-10-09T04:03:37.574Z,101207.66
2022-10-09T04:07:44.967Z,101208.50
2022-10-09T04:11:52.817Z,101212.50
2022-10-09T04:16:00.161Z,101213.95
2022-10-09T04:20:08.154Z,101218.56
2022-10-09T04:24:15.677Z,101219.59
2022-10-09T04:28:23.755Z,101222.84
2022-10-09T04:32:31.892Z,101225.27
2022-10-09T04:36:39.312Z,101230.21
2022-10-09T04:40:47.104Z,101230.44
2022-10-09T04:44:54.473Z,101232.55
2022-10-09T04:49:02.634Z,101236.13
2022-10-09T04:53:11.361Z,101238.53
2022-10-09T04:57:18.885Z,101241.34
2022-10-09T05:01:28.201Z,101246.21
2022-10-09T05:05:36.154Z,101246.19
2022-10-09T05:09:43.375Z,101249.05
2022-10-09T05:13:54.065Z,101252.83
2022-10-09T05:18:01.933Z,101254.20
2022-10-09T05:22:10.317Z,101261.69
2022-10-09T05:26:19.893Z,101268.16
2022-10-09T05:30:28.112Z,101270.92
2022-10-09T05:34:37.094Z,101271.30
2022-10-09T05:38:44.591Z,101273.80
2022-10-09T05:42:55.233Z,101272.08
2022-10-09T05:47:05.138Z,101283.67
2022-10-09T05:51:14.947Z,101283.02
2022-10-09T05:55:22.592Z,101284.83
2022-10-09T05:59:30.880Z,101291.48
2022-10-09T06:03:39.152Z,101297.83
2022-10-09T06:07:46.656Z,101305.05
2022-10-09T06:11:54.982Z,101307.26
2022-10-09T06:16:03.755Z,101309.70
2022-10-09T06:20:11.778Z,101319.33
2022-10-09T06:24:27.327Z,101324.20
2022-10-09T06:28:38.166Z,101323.95
2022-10-09T06:32:45.693Z,101326.24
2022-10-09T06:36:53.801Z,101330.61
2022-10-09T06:41:08.233Z,101329.69
2022-10-09T06:45:16.597Z,101332.05
2022-10-09T06:49:26.050Z,101336.89
2022-10-09T06:53:35.155Z,101340.45
2022-10-09T06:57:43.218Z,101345.46
2022-10-09T07:01:50.874Z,101348.65
2022-10-09T07:06:09.297Z,101361.02
2022-10-09T07:10:24.917Z,101363.70
2022-10-09T07:14:33.028Z,101367.49
2022-10-09T07:18:41.918Z,101363.70
2022-10-09T07:22:49.716Z,101368.69
2022-10-09T07:26:58.156Z,101368.27
2022-10-09T07:31:07.693Z,101373.55
2022-10-09T07:35:15.984Z,101377.45
2022-10-09T07:39:24.270Z,101381.17
2022-10-09T07:43:42.397Z,101381.92
2022-10-09T07:47:53.853Z,101386.15
2022-10-09T07:52:01.350Z,101390.54
2022-10-09T07:56:19.124Z,101385.37
2022-10-09T08:00:28.607Z,101387.04
2022-10-09T08:04:36.108Z,101392.61
2022-10-09T08:08:44.413Z,101394.83
2022-10-09T08:12:52.499Z,101395.63
2022-10-09T08:16:59.919Z,101398.95
2022-10-09T08:21:09.499Z,101398.09
2022-10-09T08:25:17.202Z,101399.38
2022-10-09T08:29:28.547Z,101403.41
2022-10-09T08:33:36.884Z,101401.19
2022-10-09T08:37:44.942Z,101397.98
2022-10-09T08:41:55.383Z,101400.59
2022-10-09T08:46:06.315Z,101404.86
2022-10-09T08:50:18.811Z,101403.78
2022-10-09T08:54:34.645Z,101403.19
2022-10-09T08:58:43.062Z,101398.92
2022-10-09T09:03:00.214Z,101400.20
2022-10-09T09:07:15.834Z,101398.19
2022-10-09T09:11:29.442Z,101400.66
2022-10-09T09:15:45.755Z,101400.98
2022-10-09T09:20:07.223Z,101399.08
2022-10-09T09:24:19.728Z,101401.67
2022-10-09T09:28:30.633Z,101401.72
2022-10-09T09:32:39.127Z,101398.78
2022-10-09T09:36:50.801Z,101397.75
2022-10-09T09:40:59.448Z,101393.89
2022-10-09T09:45:09.095Z,101394.92
2022-10-09T09:49:23.578Z,101391.06
2022-10-09T09:53:34.056Z,101393.86
2022-10-09T09:57:44.863Z,101387.77
2022-10-09T10:02:02.978Z,101387.73
2022-10-09T10:06:24.051Z,101388.02
2022-10-09T10:10:31.501Z,101387.12
2022-10-09T10:14:54.136Z,101386.51
2022-10-09T10:19:04.305Z,101383.55
2022-10-09T10:23:25.932Z,101384.32
2022-10-09T10:27:37.004Z,101385.44
2022-10-09T10:31:51.854Z,101387.12
2022-10-09T10:36:01.576Z,101382.30
2022-10-09T10:40:16.684Z,101379.04
2022-10-09T10:44:30.788Z,101376.58
2022-10-09T10:48:41.837Z,101373.09
2022-10-09T10:52:58.425Z,101374.94
2022-10-09T10:57:12.619Z,101377.52
2022-10-09T11:01:32.432Z,101379.29
2022-10-09T11:05:49.975Z,101373.30
2022-10-09T11:10:04.362Z,101370.53
2022-10-09T11:14:21.567Z,101376.83
2022-10-09T11:18:38.245Z,101373.26
2022-10-09T11:23:05.451Z,101375.29
2022-10-09T11:27:19.218Z,101372.31
2022-10-09T11:31:31.925Z,101369.60
2022-10-09T11:35:43.962Z,101371.65
2022-10-09T11:39:51.609Z,101363.27
2022-10-09T11:44:10.658Z,101368.56
2022-10-09T11:48:23.245Z,101364.91
2022-10-09T11:52:37.040Z,101359.81
2022-10-09T11:56:56.598Z,101354.06
2022-10-09T12:01:14.905Z,101345.17
2022-10-09T12:05:36.255Z,101339.16
2022-10-09T12:09:46.726Z,101332.94
2022-10-09T12:13:57.302Z,101327.08
2022-10-09T12:18:13.426Z,101327.32
2022-10-09T12:22:25.652Z,101326.23
2022-10-09T12:26:33.607Z,101323.62
2022-10-09T12:30:47.565Z,101322.11
2022-10-09T12:34:56.568Z,101319.20
2022-10-09T12:39:19.819Z,101314.34
2022-10-09T12:43:27.865Z,101305.59
2022-10-09T12:47:37.894Z,101302.30
2022-10-09T12:51:52.443Z,101296.48
2022-10-09T12:56:03.696Z,101293.16
2022-10-09T13:00:17.029Z,101290.77
2022-10-09T13:04:31.118Z,101292.23
2022-10-09T13:08:39.922Z,101287.38
2022-10-09T13:12:52.413Z,101288.86
2022-10-09T13:17:01.205Z,101281.84
2022-10-09T13:21:24.966Z,101278.10
2022-10-09T13:25:36.979Z,101276.73
2022-10-09T13:29:44.632Z,101272.92
2022-10-09T13:33:53.238Z,101266.40
2022-10-09T13:38:01.088Z,101265.90
2022-10-09T13:42:09.539Z,101264.41
2022-10-09T13:46:20.782Z,101258.20
2022-10-09T13:50:28.691Z,101249.27
2022-10-09T13:54:36.167Z,101248.55
2022-10-09T13:58:45.961Z,101250.11
2022-10-09T14:02:53.485Z,101247.20
2022-10-09T14:07:00.632Z,101243.65
2022-10-09T14:11:10.960Z,101244.41
2022-10-09T14:15:19.509Z,101242.79
2022-10-09T14:19:28.202Z,101239.96
2022-10-09T14:23:36.936Z,101233.84
2022-10-09T14:27:44.812Z,101232.56
2022-10-09T14:31:54.059Z,101232.29
2022-10-09T14:36:08.263Z,101229.34
2022-10-09T14:40:15.964Z,101224.66
2022-10-09T14:44:23.464Z,101220.30
2022-10-09T14:48:30.524Z,101219.30
2022-10-09T14:52:38.341Z,101215.35
2022-10-09T14:56:45.399Z,101210.38
2022-10-09T15:00:53.265Z,101208.24
2022-10-09T15:05:01.108Z,101206.66
2022-10-09T15:09:09.215Z,101209.30
2022-10-09T15:13:17.977Z,101204.80
2022-10-09T15:17:26.013Z,101204.72
2022-10-09T15:21:35.814Z,101198.15
2022-10-09T15:25:50.828Z,101195.97
2022-10-09T15:30:01.168Z,101192.29
2022-10-09T15:34:15.755Z,101188.30
2022-10-09T15:38:24.749Z,101190.58
2022-10-09T15:42:32.902Z,101188.50
2022-10-09T15:46:40.783Z,101188.69
2022-10-09T15:50:51.741Z,101190.27
2022-10-09T15:55:00.412Z,101190.16
2022-10-09T15:59:09.183Z,101189.55
2022-10-09T16:03:17.145Z,101188.94
2022-10-09T16:07:25.272Z,101187.90
2022-10-09T16:11:34.989Z,101185.52
2022-10-09T16:15:44.898Z,101184.87
2022-10-09T16:19:53.539Z,101187.83
2022-10-09T16:24:02.089Z,101195.71
2022-10-09T16:28:11.108Z,101195.52
2022-10-09T16:32:19.015Z,101197.41
2022-10-09T16:36:27.440Z,101203.92
2022-10-09T16:41:00.925Z,101203.80
2022-10-09T16:45:03.180Z,101204.62
2022-10-09T16:49:13.615Z,101209.72
2022-10-09T16:53:21.360Z,101214.85
2022-10-09T16:57:28.912Z,101214.56
2022-10-09T17:01:38.008Z,101216.36
2022-10-09T17:05:45.982Z,101217.27
2022-10-09T17:09:56.815Z,101216.45
2022-10-09T17:14:05.096Z,101218.18
2022-10-09T17:18:12.552Z,101218.98
2022-10-09T17:22:20.698Z,101218.71
2022-10-09T17:26:29.891Z,101216.55
2022-10-09T17:30:40.634Z,101214.58
2022-10-09T17:34:48.622Z,101214.11
2022-10-09T17:38:56.446Z,101217.84
2022-10-09T17:43:04.612Z,101215.00
2022-10-09T17:47:12.059Z,101220.81
2022-10-09T17:51:21.706Z,101222.52
2022-10-09T17:55:29.293Z,101219.80
2022-10-09T17:59:37.229Z,101228.24
2022-10-09T18:03:45.282Z,101229.86
2022-10-09T18:07:52.855Z,101225.71
2022-10-09T18:12:00.856Z,101229.71
2022-10-09T18:16:10.514Z,101221.84
2022-10-09T18:20:18.099Z,101224.49
2022-10-09T18:24:25.851Z,101226.46
2022-10-09T18:28:33.582Z,101228.46
2022-10-09T18:32:42.670Z,101230.75
2022-10-09T18:36:52.943Z,101227.46
2022-10-09T18:41:01.909Z,101229.22
2022-10-09T18:45:11.292Z,101223.98
2022-10-09T18:49:20.955Z,101223.53
2022-10-09T18:53:29.322Z,101217.35
2022-10-09T18:57:37.032Z,101220.64
2022-10-09T19:01:45.126Z,101219.23
2022-10-09T19:05:52.920Z,101221.94
2022-10-09T19:10:01.517Z,101223.88
2022-10-09T19:14:16.585Z,101222.13
2022-10-09T19:18:24.015Z,101224.52
2022-10-09T19:22:33.087Z,101221.27
2022-10-09T19:26:42.840Z,101218.52
2022-10-09T19:30:50.256Z,101216.17
2022-10-09T19:34:57.955Z,101223.05
2022-10-09T19:39:06.755Z,101226.44
2022-10-09T19:43:15.765Z,101226.05
2022-10-09T19:47:23.791Z,101215.03
2022-10-09T19:51:31.815Z,101219.36
2022-10-09T19:55:39.981Z,101222.67
2022-10-09T19:59:48.050Z,101212.48
2022-10-09T20:03:59.305Z,101209.52
2022-10-09T20:08:06.935Z,101213.04
2022-10-09T20:12:14.363Z,101218.02
2022-10-09T20:16:22.105Z,101219.92
2022-10-09T20:20:29.791Z,101217.59
2022-10-09T20:24:39.073Z,101216.94
2022-10-09T20:28:47.655Z,101215.98
2022-10-09T20:32:59.196Z,101216.14
2022-10-09T20:37:07.477Z,101216.14
2022-10-09T20:41:15.249Z,101212.47
2022-10-09T20:45:23.926Z,101210.80
2022-10-09T20:49:32.430Z,101207.07
2022-10-09T20:53:40.377Z,101204.84
2022-10-09T20:57:50.696Z,101202.10
2022-10-09T21:02:00.364Z,101199.63
2022-10-09T21:06:10.941Z,101189.39
2022-10-09T21:10:18.651Z,101188.31
2022-10-09T21:14:26.350Z,101186.09
2022-10-09T21:18:34.164Z,101183.70
2022-10-09T21:22:41.561Z,101176.01
2022-10-09T21:26:51.326Z,101174.36
2022-10-09T21:30:58.983Z,101175.41
2022-10-09T21:35:07.517Z,101175.29
2022-10-09T21:39:15.230Z,101172.84
2022-10-09T21:43:22.975Z,101178.17
2022-10-09T21:47:30.825Z,101172.05
2022-10-09T21:51:38.602Z,101167.77
2022-10-09T21:55:46.482Z,101168.17
2022-10-09T21:59:53.667Z,101167.95
2022-10-09T22:04:01.549Z,101161.35
2022-10-09T22:08:09.589Z,101160.45
2022-10-09T22:12:18.595Z,101158.59
2022-10-09T22:16:26.225Z,101155.86
2022-10-09T22:20:34.471Z,101151.29
2022-10-09T22:24:41.880Z,101151.69
2022-10-09T22:28:51.323Z,101153.95
2022-10-09T22:32:59.005Z,101150.98
2022-10-09T22:37:07.037Z,101150.36
2022-10-09T22:41:16.140Z,101146.77
2022-10-09T22:45:24.240Z,101139.17
2022-10-09T22:49:31.935Z,101134.45
2022-10-09T22:53:40.560Z,101133.87
2022-10-09T22:57:48.548Z,101127.03
2022-10-09T23:01:58.170Z,101126.39
2022-10-09T23:06:14.229Z,101120.99
2022-10-09T23:10:22.830Z,101121.97
2022-10-09T23:14:30.001Z,101122.17
2022-10-09T23:18:38.855Z,101122.67
2022-10-09T23:22:47.098Z,101120.59
2022-10-09T23:26:54.969Z,101121.07
2022-10-09T23:31:10.897Z,101111.66
2022-10-09T23:35:20.240Z,101114.66
2022-10-09T23:39:28.262Z,101110.16
2022-10-09T23:43:39.315Z,101107.48
2022-10-09T23:47:47.024Z,101105.23
2022-10-09T23:51:54.942Z,101105.30
2022-10-09T23:56:02.824Z,101097.94
